createdAt,value
2023-03-31T00:01:42.639Z,99814.50
2023-03-31T00:04:14.179Z,99812.22
2023-03-31T00:06:43.958Z,99806.75
2023-03-31T00:09:14.365Z,99812.22
2023-03-31T00:11:42.802Z,99802.34
2023-03-31T00:14:15.548Z,99795.75
2023-03-31T00:16:46.125Z,99796.72
2023-03-31T00:19:18.210Z,99785.72
2023-03-31T00:21:48.517Z,99795.91
2023-03-31T00:24:17.461Z,99782.69
2023-03-31T00:26:46.036Z,99777.31
2023-03-31T00:29:16.029Z,99781.56
2023-03-31T00:31:45.914Z,99767.91
2023-03-31T00:34:14.401Z,99767.72
2023-03-31T00:36:47.624Z,99756.47
2023-03-31T00:39:20.901Z,99749.75
2023-03-31T00:41:49.227Z,99749.44
2023-03-31T00:44:22.620Z,99746.09
2023-03-31T00:46:55.803Z,99742.31
2023-03-31T00:49:30.136Z,99741.34
2023-03-31T00:52:03.381Z,99728.78
2023-03-31T00:54:34.006Z,99732.00
2023-03-31T00:57:06.781Z,99728.47
2023-03-31T00:59:39.427Z,99726.13
2023-03-31T01:02:10.622Z,99726.84
2023-03-31T01:04:44.717Z,99723.19
2023-03-31T01:07:19.626Z,99710.22
2023-03-31T01:09:49.273Z,99716.16
2023-03-31T01:12:19.196Z,99708.41
2023-03-31T01:14:49.621Z,99705.94
2023-03-31T01:17:22.624Z,99704.50
2023-03-31T01:20:13.695Z,99700.56
2023-03-31T01:23:27.042Z,99689.47
2023-03-31T01:26:33.713Z,99687.75
2023-03-31T01:29:11.353Z,99670.13
2023-03-31T01:32:08.410Z,99664.41
2023-03-31T01:35:25.446Z,99665.56
2023-03-31T01:38:17.563Z,99664.69
2023-03-31T01:41:03.129Z,99661.34
2023-03-31T01:43:38.190Z,99660.28
2023-03-31T01:46:12.912Z,99659.69
2023-03-31T01:48:50.417Z,99660.63
2023-03-31T01:51:28.810Z,99654.63
2023-03-31T01:54:04.529Z,99652.91
2023-03-31T01:56:38.248Z,99647.75
2023-03-31T01:59:13.476Z,99646.59
2023-03-31T02:01:50.874Z,99648.19
2023-03-31T02:04:23.617Z,99632.56
2023-03-31T02:06:57.028Z,99635.06
2023-03-31T02:09:33.098Z,99621.19
2023-03-31T02:12:06.198Z,99616.50
2023-03-31T02:14:37.492Z,99607.66
2023-03-31T02:17:08.580Z,99606.44
2023-03-31T02:19:41.920Z,99595.06
2023-03-31T02:22:11.509Z,99601.25
2023-03-31T02:24:43.008Z,99600.09
2023-03-31T02:27:20.170Z,99593.09
2023-03-31T02:29:49.257Z,99590.75
2023-03-31T02:32:23.859Z,99587.09
2023-03-31T02:34:55.716Z,99591.91
2023-03-31T02:37:24.328Z,99582.72
2023-03-31T02:39:54.734Z,99584.28
2023-03-31T02:42:28.114Z,99571.44
2023-03-31T02:45:02.771Z,99566.94
2023-03-31T02:47:31.102Z,99569.19
2023-03-31T02:50:02.908Z,99576.78
2023-03-31T02:52:57.674Z,99569.28
2023-03-31T02:55:41.197Z,99552.06
2023-03-31T02:58:35.482Z,99543.44
2023-03-31T03:01:28.515Z,99539.38
2023-03-31T03:04:11.248Z,99526.06
2023-03-31T03:06:46.532Z,99513.38
2023-03-31T03:09:37.068Z,99503.75
2023-03-31T03:12:12.498Z,99485.34
2023-03-31T03:14:49.165Z,99479.19
2023-03-31T03:17:21.762Z,99473.09
2023-03-31T03:19:54.786Z,99467.09
2023-03-31T03:22:24.306Z,99469.31
2023-03-31T03:24:53.416Z,99464.34
2023-03-31T03:27:23.166Z,99458.06
2023-03-31T03:29:53.137Z,99458.78
2023-03-31T03:32:23.832Z,99451.06
2023-03-31T03:34:52.291Z,99442.16
2023-03-31T03:37:20.484Z,99434.56
2023-03-31T03:39:48.662Z,99414.75
2023-03-31T03:42:16.957Z,99412.25
2023-03-31T03:44:45.396Z,99402.19
2023-03-31T03:47:15.411Z,99402.06
2023-03-31T03:49:43.639Z,99396.78
2023-03-31T03:52:12.176Z,99401.78
2023-03-31T03:54:40.887Z,99388.47
2023-03-31T03:57:09.306Z,99364.13
2023-03-31T03:59:37.637Z,99346.63
2023-03-31T04:02:06.143Z,99364.13
2023-03-31T04:04:36.114Z,99359.88
2023-03-31T04:07:05.698Z,99346.34
2023-03-31T04:09:34.258Z,99345.47
2023-03-31T04:12:02.578Z,99352.75
2023-03-31T04:14:31.139Z,99351.28
2023-03-31T04:17:00.096Z,99345.72
2023-03-31T04:19:28.653Z,99353.06
2023-03-31T04:22:03.270Z,99353.19
2023-03-31T04:24:32.890Z,99348.66
2023-03-31T04:27:03.109Z,99325.94
2023-03-31T04:29:33.569Z,99314.41
2023-03-31T04:32:03.075Z,99299.09
2023-03-31T04:34:36.115Z,99300.13
2023-03-31T04:37:05.720Z,99302.75
2023-03-31T04:39:34.907Z,99288.16
2023-03-31T04:42:03.401Z,99288.59
2023-03-31T04:44:32.391Z,99287.72
2023-03-31T04:47:03.192Z,99292.81
2023-03-31T04:49:33.769Z,99299.38
2023-03-31T04:52:02.238Z,99304.34
2023-03-31T04:54:33.000Z,99310.75
2023-03-31T04:57:01.392Z,99304.78
2023-03-31T04:59:29.805Z,99300.28
2023-03-31T05:01:58.225Z,99300.28
2023-03-31T05:04:26.487Z,99302.59
2023-03-31T05:06:55.096Z,99304.34
2023-03-31T05:09:23.294Z,99299.25
2023-03-31T05:11:52.903Z,99295.88
2023-03-31T05:14:22.075Z,99288.88
2023-03-31T05:16:50.487Z,99290.31
2023-03-31T05:19:18.824Z,99291.34
2023-03-31T05:21:47.122Z,99278.34
2023-03-31T05:24:15.342Z,99272.25
2023-03-31T05:26:48.046Z,99275.47
2023-03-31T05:29:17.921Z,99264.81
2023-03-31T05:31:46.479Z,99268.91
2023-03-31T05:34:14.961Z,99264.81
2023-03-31T05:36:44.826Z,99262.75
2023-03-31T05:39:12.841Z,99266.84
2023-03-31T05:41:41.516Z,99252.28
2023-03-31T05:44:09.783Z,99236.53
2023-03-31T05:46:41.396Z,99242.06
2023-03-31T05:49:11.318Z,99228.22
2023-03-31T05:51:39.372Z,99225.59
2023-03-31T05:54:07.897Z,99221.66
2023-03-31T05:56:36.074Z,99218.56
2023-03-31T05:59:05.285Z,99206.06
2023-03-31T06:01:34.025Z,99205.91
2023-03-31T06:04:03.768Z,99209.69
2023-03-31T06:06:34.323Z,99205.91
2023-03-31T06:09:06.270Z,99206.94
2023-03-31T06:11:34.767Z,99200.22
2023-03-31T06:14:03.116Z,99172.25
2023-03-31T06:16:32.039Z,99167.28
2023-03-31T06:19:00.344Z,99145.69
2023-03-31T06:21:30.352Z,99134.03
2023-03-31T06:24:00.365Z,99121.06
2023-03-31T06:26:29.323Z,99129.22
2023-03-31T06:28:58.558Z,99110.16
2023-03-31T06:31:27.247Z,99100.09
2023-03-31T06:33:56.499Z,99090.00
2023-03-31T06:36:26.031Z,99078.47
2023-03-31T06:38:55.892Z,99076.88
2023-03-31T06:41:24.036Z,99074.50
2023-03-31T06:43:53.257Z,99074.78
2023-03-31T06:46:21.932Z,99080.47
2023-03-31T06:48:50.556Z,99079.88
2023-03-31T06:51:18.937Z,99077.41
2023-03-31T06:53:47.854Z,99080.34
2023-03-31T06:56:17.349Z,99087.88
2023-03-31T06:58:46.413Z,99086.69
2023-03-31T07:01:15.315Z,99093.09
2023-03-31T07:03:43.646Z,99078.94
2023-03-31T07:06:12.370Z,99088.13
2023-03-31T07:08:40.867Z,99084.00
2023-03-31T07:11:09.433Z,99081.81
2023-03-31T07:13:39.564Z,99072.88
2023-03-31T07:16:09.956Z,99081.16
2023-03-31T07:18:42.192Z,99082.94
2023-03-31T07:21:11.662Z,99081.72
2023-03-31T07:23:40.295Z,99075.41
2023-03-31T07:26:09.008Z,99087.38
2023-03-31T07:28:37.751Z,99085.94
2023-03-31T07:31:13.329Z,99083.16
2023-03-31T07:33:42.274Z,99082.34
2023-03-31T07:36:13.845Z,99084.59
2023-03-31T07:38:44.407Z,99097.41
2023-03-31T07:41:14.584Z,99105.28
2023-03-31T07:43:45.595Z,99119.72
2023-03-31T07:46:21.038Z,99138.84
2023-03-31T07:48:53.492Z,99158.16
2023-03-31T07:51:25.516Z,99115.31
2023-03-31T07:53:54.443Z,99106.03
2023-03-31T07:56:24.578Z,99119.19
2023-03-31T07:58:56.853Z,99099.06
2023-03-31T08:01:29.017Z,99076.31
2023-03-31T08:03:59.143Z,99108.66
2023-03-31T08:06:29.025Z,99097.88
2023-03-31T08:08:57.988Z,99103.09
2023-03-31T08:11:26.945Z,99101.03
2023-03-31T08:13:57.767Z,99105.53
2023-03-31T08:16:27.804Z,99088.34
2023-03-31T08:18:56.095Z,99084.84
2023-03-31T08:21:24.672Z,99092.72
2023-03-31T08:23:56.452Z,99113.72
2023-03-31T08:26:27.170Z,99110.38
2023-03-31T08:28:59.380Z,99093.91
2023-03-31T08:31:29.922Z,99121.19
2023-03-31T08:33:58.591Z,99127.16
2023-03-31T08:36:28.437Z,99139.22
2023-03-31T08:38:56.947Z,99114.13
2023-03-31T08:41:36.758Z,99118.50
2023-03-31T08:44:07.655Z,99108.59
2023-03-31T08:46:38.392Z,99115.69
2023-03-31T08:49:09.404Z,99114.44
2023-03-31T08:51:42.052Z,99103.91
2023-03-31T08:54:17.228Z,99113.06
2023-03-31T08:56:52.332Z,99101.66
2023-03-31T08:59:27.453Z,99103.47
2023-03-31T09:02:03.547Z,99096.97
2023-03-31T09:05:02.023Z,99094.19
2023-03-31T09:07:40.798Z,99078.72
2023-03-31T09:10:26.307Z,99073.16
2023-03-31T09:12:59.159Z,99075.53
2023-03-31T09:15:29.680Z,99079.56
2023-03-31T09:18:04.233Z,99079.88
2023-03-31T09:20:38.612Z,99081.81
2023-03-31T09:23:18.093Z,99083.00
2023-03-31T09:25:47.949Z,99100.16
2023-03-31T09:28:23.165Z,99087.56
2023-03-31T09:30:54.205Z,99101.16
2023-03-31T09:33:31.744Z,99100.59
2023-03-31T09:36:00.320Z,99102.13
2023-03-31T09:38:31.214Z,99118.06
2023-03-31T09:41:03.557Z,99125.88
2023-03-31T09:43:35.341Z,99121.13
2023-03-31T09:46:14.734Z,99126.56
2023-03-31T09:48:53.170Z,99130.97
2023-03-31T09:51:27.180Z,99126.19
2023-03-31T09:53:59.732Z,99098.34
2023-03-31T09:56:48.756Z,99081.19
2023-03-31T09:59:19.230Z,99074.41
2023-03-31T10:01:50.554Z,99056.50
2023-03-31T10:04:24.431Z,99065.69
2023-03-31T10:06:54.654Z,99065.63
2023-03-31T10:09:27.763Z,99041.91
2023-03-31T10:11:58.766Z,99038.19
2023-03-31T10:14:33.494Z,99039.97
2023-03-31T10:17:06.919Z,99037.78
2023-03-31T10:19:39.029Z,99028.53
2023-03-31T10:22:16.334Z,99028.88
2023-03-31T10:24:47.191Z,99024.28
2023-03-31T10:27:22.964Z,99021.19
2023-03-31T10:29:54.466Z,99029.50
2023-03-31T10:32:28.877Z,99025.88
2023-03-31T10:35:01.753Z,99007.94
2023-03-31T10:37:31.895Z,99017.28
2023-03-31T10:40:04.690Z,99012.63
2023-03-31T10:42:33.479Z,99001.78
2023-03-31T10:45:36.556Z,99007.66
2023-03-31T10:48:08.150Z,99009.16
2023-03-31T10:50:37.693Z,98995.38
2023-03-31T10:53:12.031Z,98975.94
2023-03-31T10:55:47.620Z,98990.31
2023-03-31T10:58:27.480Z,98988.19
2023-03-31T11:01:06.999Z,98974.31
2023-03-31T11:03:56.888Z,98983.69
2023-03-31T11:06:34.530Z,98986.06
2023-03-31T11:09:17.236Z,98983.56
2023-03-31T11:12:03.361Z,98983.06
2023-03-31T11:14:41.725Z,98987.47
2023-03-31T11:17:22.934Z,98978.88
2023-03-31T11:20:00.766Z,98972.44
2023-03-31T11:22:38.690Z,98967.97
2023-03-31T11:25:19.251Z,98962.34
2023-03-31T11:28:06.890Z,98968.47
2023-03-31T11:30:41.274Z,98958.16
2023-03-31T11:33:29.102Z,98962.34
2023-03-31T11:36:14.867Z,98957.22
2023-03-31T11:38:55.109Z,98961.34
2023-03-31T11:41:31.445Z,98951.31
2023-03-31T11:44:04.612Z,98953.72
2023-03-31T11:46:39.500Z,98946.31
2023-03-31T11:49:14.979Z,98960.97
2023-03-31T11:51:48.805Z,98957.94
2023-03-31T11:54:25.447Z,98958.00
2023-03-31T11:56:56.704Z,98952.81
2023-03-31T11:59:31.891Z,98960.22
2023-03-31T12:02:10.549Z,98955.38
2023-03-31T12:04:42.483Z,98948.13
2023-03-31T12:07:23.811Z,98940.41
2023-03-31T12:10:03.410Z,98944.41
2023-03-31T12:12:33.563Z,98924.34
2023-03-31T12:15:12.039Z,98918.75
2023-03-31T12:17:42.882Z,98923.09
2023-03-31T12:20:18.936Z,98908.91
2023-03-31T12:22:49.657Z,98916.44
2023-03-31T12:25:26.143Z,98911.53
2023-03-31T12:27:58.787Z,98902.25
2023-03-31T12:30:35.280Z,98897.19
2023-03-31T12:33:07.562Z,98896.34
2023-03-31T12:35:46.076Z,98899.09
2023-03-31T12:38:38.437Z,98899.25
2023-03-31T12:41:17.672Z,98900.97
2023-03-31T12:44:11.564Z,98910.63
2023-03-31T12:47:05.335Z,98908.00
2023-03-31T12:49:47.270Z,98915.19
2023-03-31T12:52:23.193Z,98914.84
2023-03-31T12:55:10.734Z,98912.97
2023-03-31T12:57:40.670Z,98918.25
2023-03-31T13:00:24.462Z,98910.47
2023-03-31T13:03:33.913Z,98905.78
2023-03-31T13:06:03.105Z,98892.31
2023-03-31T13:08:51.427Z,98905.34
2023-03-31T13:11:21.743Z,98910.94
2023-03-31T13:14:01.811Z,98906.47
2023-03-31T13:16:30.974Z,98899.66
2023-03-31T13:19:00.648Z,98894.78
2023-03-31T13:21:29.550Z,98895.91
2023-03-31T13:24:03.061Z,98885.34
2023-03-31T13:26:40.489Z,98885.06
2023-03-31T13:29:21.903Z,98879.97
2023-03-31T13:32:21.767Z,98889.91
2023-03-31T13:35:02.622Z,98886.16
2023-03-31T13:37:58.782Z,98893.81
2023-03-31T13:41:03.089Z,98896.22
2023-03-31T13:44:03.644Z,98895.56
2023-03-31T13:46:52.932Z,98903.41
2023-03-31T13:49:48.711Z,98895.41
2023-03-31T13:52:29.029Z,98896.63
2023-03-31T13:55:21.925Z,98889.72
2023-03-31T13:58:34.960Z,98887.34
2023-03-31T14:01:23.210Z,98879.19
2023-03-31T14:04:06.150Z,98879.81
2023-03-31T14:06:38.907Z,98881.47
2023-03-31T14:09:10.473Z,98868.97
2023-03-31T14:11:39.116Z,98860.50
2023-03-31T14:14:11.300Z,98862.47
2023-03-31T14:16:43.105Z,98858.09
2023-03-31T14:19:49.476Z,98841.41
2023-03-31T14:22:32.185Z,98843.38
2023-03-31T14:25:12.732Z,98834.69
2023-03-31T14:27:55.233Z,98854.75
2023-03-31T14:30:33.136Z,98849.91
2023-03-31T14:33:12.888Z,98847.88
2023-03-31T14:35:51.227Z,98848.91
2023-03-31T14:38:23.822Z,98845.34
2023-03-31T14:40:56.315Z,98842.47
2023-03-31T14:43:28.257Z,98855.91
2023-03-31T14:46:01.117Z,98852.19
2023-03-31T14:48:31.394Z,98844.63
2023-03-31T14:51:04.028Z,98838.63
2023-03-31T14:53:37.282Z,98845.31
2023-03-31T14:56:08.888Z,98835.53
2023-03-31T14:58:41.221Z,98833.91
2023-03-31T15:01:14.755Z,98836.25
2023-03-31T15:03:43.897Z,98850.31
2023-03-31T15:06:14.210Z,98893.81
2023-03-31T15:08:44.515Z,98945.97
2023-03-31T15:11:19.530Z,98962.75
2023-03-31T15:14:03.433Z,98904.53
2023-03-31T15:16:42.248Z,98922.63
2023-03-31T15:19:17.494Z,98894.53
2023-03-31T15:21:47.499Z,98871.72
2023-03-31T15:24:18.900Z,98861.56
2023-03-31T15:27:01.339Z,98863.94
2023-03-31T15:29:37.874Z,98871.72
2023-03-31T15:32:09.540Z,98859.31
2023-03-31T15:34:37.849Z,98860.44
2023-03-31T15:37:08.834Z,98872.09
2023-03-31T15:39:40.297Z,98872.28
2023-03-31T15:42:10.689Z,98870.09
2023-03-31T15:44:44.673Z,98877.69
2023-03-31T15:47:25.455Z,98882.31
2023-03-31T15:49:57.215Z,98877.97
2023-03-31T15:52:33.894Z,98876.00
2023-03-31T15:55:28.653Z,98859.63
2023-03-31T15:57:58.916Z,98862.13
2023-03-31T16:00:45.568Z,98850.69
2023-03-31T16:03:23.570Z,98845.34
2023-03-31T16:05:57.022Z,98847.41
2023-03-31T16:08:32.258Z,98834.00
2023-03-31T16:11:06.420Z,98846.09
2023-03-31T16:16:11.018Z,98853.94
2023-03-31T16:18:43.942Z,98840.75
2023-03-31T16:21:14.181Z,98843.78
2023-03-31T16:23:45.883Z,98853.09
2023-03-31T16:26:23.002Z,98845.22
2023-03-31T16:28:54.061Z,98849.00
2023-03-31T16:31:32.027Z,98854.31
2023-03-31T16:34:00.352Z,98858.66
2023-03-31T16:36:28.814Z,98855.84
2023-03-31T16:38:59.675Z,98854.66
2023-03-31T16:41:31.057Z,98848.72
2023-03-31T16:43:59.605Z,98845.97
2023-03-31T16:46:28.007Z,98856.44
2023-03-31T16:48:56.681Z,98848.00
2023-03-31T16:51:25.224Z,98849.59
2023-03-31T16:53:53.511Z,98848.00
2023-03-31T16:56:22.066Z,98849.94
2023-03-31T16:58:53.644Z,98852.72
2023-03-31T17:01:22.183Z,98856.19
2023-03-31T17:03:51.329Z,98853.03
2023-03-31T17:06:19.964Z,98863.41
2023-03-31T17:08:48.633Z,98859.78
2023-03-31T17:11:17.476Z,98868.25
2023-03-31T17:13:46.633Z,98866.31
2023-03-31T17:16:24.410Z,98866.06
2023-03-31T17:18:57.588Z,98866.44
2023-03-31T17:21:26.330Z,98862.47
2023-03-31T17:23:55.472Z,98870.22
2023-03-31T17:26:24.264Z,98869.69
2023-03-31T17:28:53.054Z,98875.09
2023-03-31T17:31:24.785Z,98869.31
2023-03-31T17:33:53.388Z,98867.41
2023-03-31T17:36:22.569Z,98862.13
2023-03-31T17:38:50.974Z,98869.59
2023-03-31T17:41:19.734Z,98873.44
2023-03-31T17:43:50.192Z,98870.44
2023-03-31T17:46:18.765Z,98875.28
2023-03-31T17:48:51.397Z,98879.03
2023-03-31T17:51:23.241Z,98879.38
2023-03-31T17:53:52.123Z,98871.38
2023-03-31T17:56:20.853Z,98882.00
2023-03-31T17:58:49.494Z,98878.38
2023-03-31T18:01:19.335Z,98887.19
2023-03-31T18:03:49.741Z,98881.25
2023-03-31T18:06:18.074Z,98891.03
2023-03-31T18:08:47.850Z,98891.97
2023-03-31T18:11:16.135Z,98904.38
2023-03-31T18:13:44.718Z,98914.38
2023-03-31T18:16:13.673Z,98923.66
2023-03-31T18:18:43.284Z,98930.91
2023-03-31T18:21:14.914Z,98919.56
2023-03-31T18:23:44.077Z,98930.06
2023-03-31T18:26:14.163Z,98924.13
2023-03-31T18:28:44.846Z,98931.94
2023-03-31T18:31:15.018Z,98936.16
2023-03-31T18:33:43.964Z,98926.50
2023-03-31T18:36:17.169Z,98927.69
2023-03-31T18:38:46.992Z,98931.09
2023-03-31T18:41:17.638Z,98928.91
2023-03-31T18:43:47.532Z,98933.13
2023-03-31T18:46:16.055Z,98935.50
2023-03-31T18:48:44.781Z,98933.94
2023-03-31T18:51:14.974Z,98943.41
2023-03-31T18:53:44.714Z,98953.22
2023-03-31T18:56:14.191Z,98946.09
2023-03-31T18:58:43.953Z,98950.78
2023-03-31T19:01:12.558Z,98942.50
2023-03-31T19:03:42.451Z,98939.31
2023-03-31T19:06:11.428Z,98941.22
2023-03-31T19:08:41.536Z,98950.59
2023-03-31T19:11:12.647Z,98942.13
2023-03-31T19:13:43.159Z,98939.97
2023-03-31T19:16:12.508Z,98948.16
2023-03-31T19:18:42.225Z,98955.47
2023-03-31T19:21:11.797Z,98954.59
2023-03-31T19:23:42.820Z,98948.97
2023-03-31T19:26:15.707Z,98948.56
2023-03-31T19:28:45.149Z,98949.44
2023-03-31T19:31:15.356Z,98939.97
2023-03-31T19:33:46.578Z,98951.25
2023-03-31T19:36:15.307Z,98947.75
2023-03-31T19:38:46.345Z,98945.72
2023-03-31T19:41:14.786Z,98949.22
2023-03-31T19:43:43.009Z,98942.81
2023-03-31T19:46:11.652Z,98952.72
2023-03-31T19:48:41.560Z,98960.94
2023-03-31T19:51:11.074Z,98962.56
2023-03-31T19:53:40.801Z,98963.13
2023-03-31T19:56:11.713Z,98956.69
2023-03-31T19:58:40.689Z,98966.50
2023-03-31T20:01:17.120Z,98965.63
2023-03-31T20:03:45.812Z,98959.31
2023-03-31T20:06:16.179Z,98963.00
2023-03-31T20:08:45.104Z,98967.06
2023-03-31T20:11:16.363Z,98965.72
2023-03-31T20:13:45.784Z,98962.72
2023-03-31T20:16:17.485Z,98967.41
2023-03-31T20:18:49.089Z,98964.91
2023-03-31T20:21:19.087Z,98963.91
2023-03-31T20:23:48.240Z,98966.56
2023-03-31T20:26:20.539Z,98966.25
2023-03-31T20:28:50.307Z,98963.66
2023-03-31T20:31:19.778Z,98964.81
2023-03-31T20:33:48.843Z,98964.81
2023-03-31T20:36:20.215Z,98966.56
2023-03-31T20:38:51.114Z,98957.66
2023-03-31T20:41:27.407Z,98969.03
2023-03-31T20:43:57.657Z,98974.84
2023-03-31T20:46:26.792Z,98968.44
2023-03-31T20:48:57.343Z,98980.38
2023-03-31T20:51:27.633Z,98974.22
2023-03-31T20:53:57.672Z,98967.81
2023-03-31T20:56:31.329Z,98964.31
2023-03-31T20:59:00.619Z,98971.19
2023-03-31T21:01:32.345Z,98968.97
2023-03-31T21:04:03.666Z,98974.50
2023-03-31T21:06:37.308Z,98963.41
2023-03-31T21:09:05.835Z,98971.44
2023-03-31T21:11:36.031Z,98975.69
2023-03-31T21:14:05.800Z,98975.53
2023-03-31T21:16:34.584Z,98981.63
2023-03-31T21:19:03.167Z,98979.88
2023-03-31T21:21:33.612Z,98981.06
2023-03-31T21:24:02.530Z,98990.25
2023-03-31T21:26:31.148Z,98983.38
2023-03-31T21:29:01.937Z,98993.41
2023-03-31T21:31:33.259Z,98979.75
2023-03-31T21:34:04.634Z,98988.31
2023-03-31T21:36:32.945Z,98988.34
2023-03-31T21:39:01.377Z,98982.97
2023-03-31T21:41:32.053Z,98978.00
2023-03-31T21:44:03.173Z,98990.56
2023-03-31T21:46:34.233Z,98980.19
2023-03-31T21:49:04.885Z,98987.31
2023-03-31T21:51:41.673Z,98984.81
2023-03-31T21:54:09.787Z,98986.97
2023-03-31T21:56:38.111Z,98984.03
2023-03-31T21:59:08.747Z,98970.94
2023-03-31T22:01:37.466Z,98980.13
2023-03-31T22:04:07.348Z,98987.09
2023-03-31T22:06:38.676Z,98990.88
2023-03-31T22:09:07.356Z,98983.28
2023-03-31T22:11:36.632Z,98986.94
2023-03-31T22:14:07.839Z,98994.22
2023-03-31T22:16:36.501Z,98997.00
2023-03-31T22:19:06.100Z,99001.25
2023-03-31T22:21:43.955Z,98993.66
2023-03-31T22:24:14.072Z,99005.28
2023-03-31T22:26:42.423Z,98999.75
2023-03-31T22:29:16.582Z,98995.81
2023-03-31T22:31:44.975Z,98994.19
2023-03-31T22:34:13.187Z,98993.38
2023-03-31T22:36:42.920Z,98994.09
2023-03-31T22:39:11.538Z,98997.00
2023-03-31T22:41:40.513Z,98995.00
2023-03-31T22:44:15.506Z,98997.16
2023-03-31T22:46:47.181Z,99001.25
2023-03-31T22:49:21.167Z,98991.78
2023-03-31T22:51:49.596Z,99000.25
2023-03-31T22:54:18.311Z,98992.81
2023-03-31T22:56:51.149Z,98995.13
2023-03-31T22:59:21.040Z,98992.53
2023-03-31T23:01:52.896Z,98991.94
2023-03-31T23:04:23.106Z,98986.56
2023-03-31T23:06:52.875Z,98981.00
2023-03-31T23:09:25.241Z,98987.09
2023-03-31T23:11:54.263Z,99001.53
2023-03-31T23:14:24.370Z,99002.28
2023-03-31T23:16:52.773Z,98987.69
2023-03-31T23:19:25.652Z,99000.38
2023-03-31T23:21:53.993Z,99001.53
2023-03-31T23:24:22.959Z,99010.72
2023-03-31T23:26:51.513Z,99002.72
2023-03-31T23:29:20.082Z,98999.53
2023-03-31T23:31:49.773Z,99001.16
2023-03-31T23:34:18.089Z,98994.88
2023-03-31T23:36:46.744Z,98994.44
2023-03-31T23:39:17.150Z,99000.56
2023-03-31T23:41:48.929Z,98996.34
2023-03-31T23:44:17.031Z,98989.34
2023-03-31T23:46:48.988Z,98988.91
2023-03-31T23:49:17.213Z,98986.16
2023-03-31T23:51:45.900Z,98981.34
2023-03-31T23:54:14.548Z,98989.94
2023-03-31T23:56:43.281Z,98993.59
2023-03-31T23:59:12.234Z,98985.84
